CheckWX is a tool to help pilots better visualize weather data.  It is not intended as a substitute for an official pre-flight weather briefing.

06:56:10 UTC

SBPA METAR
Salgado Filho Airport
Porto Alegre, Brazil
Current

17 mins ago

SBPA 170639Z 08005KT 0800 R11/0200 R29/0200 FG VV002 18/18 Q1022
Observed
Jun-17 @ 06:39 UTC
Wind
  • 080° at 5 KTS
Visibility
805 meters
Flight Rules
LIFR
Conditions
Fog
Cloud Levels
  • Vertical visibility at 200' AGL
Temperature
18°C / 64°F
Dewpoint
18°C / 64°F
Humidity
100%
Altimeter
30.18" Hg
Pressure
1021.92 hPa
Previous

56 mins ago

SBPA 170600Z 10004KT 2000 BR OVC002 18/18 Q1022
Observed
Jun-17 @ 06:00 UTC
Wind
  • 100° at 4 KTS
Visibility
1,996 meters
Flight Rules
LIFR
Conditions
Mist
Cloud Levels
  • Overcast at 200' AGL
Temperature
18°C / 64°F
Dewpoint
18°C / 64°F
Humidity
100%
Altimeter
30.18" Hg
Pressure
1021.92 hPa
Previous

2 hours ago

SBPA 170500Z 12005KT 2000 BR OVC002 19/19 Q1023
Observed
Jun-17 @ 05:00 UTC
Wind
  • 120° at 5 KTS
Visibility
1,996 meters
Flight Rules
LIFR
Conditions
Mist
Cloud Levels
  • Overcast at 200' AGL
Temperature
19°C / 66°F
Dewpoint
19°C / 66°F
Humidity
100%
Altimeter
30.21" Hg
Pressure
1022.92 hPa